createdAt,value
2023-04-28T00:01:21.519Z,99.90
2023-04-28T00:03:50.993Z,99.90
2023-04-28T00:06:20.598Z,99.90
2023-04-28T00:08:49.851Z,99.90
2023-04-28T00:11:19.154Z,99.90
2023-04-28T00:13:48.541Z,99.90
2023-04-28T00:16:17.955Z,99.90
2023-04-28T00:18:47.361Z,99.90
2023-04-28T00:21:16.692Z,99.90
2023-04-28T00:23:46.050Z,99.90
2023-04-28T00:26:15.567Z,99.90
2023-04-28T00:28:44.882Z,99.90
2023-04-28T00:31:17.345Z,99.90
2023-04-28T00:33:47.092Z,99.90
2023-04-28T00:36:16.719Z,99.90
2023-04-28T00:38:46.000Z,99.90
2023-04-28T00:41:16.552Z,99.90
2023-04-28T00:43:50.561Z,99.90
2023-04-28T00:46:28.273Z,99.90
2023-04-28T00:48:58.949Z,99.90
2023-04-28T00:51:30.080Z,99.90
2023-04-28T00:53:59.796Z,99.90
2023-04-28T00:56:32.322Z,99.90
2023-04-28T00:59:01.895Z,99.90
2023-04-28T01:01:31.746Z,99.90
2023-04-28T01:04:01.529Z,99.90
2023-04-28T01:06:32.004Z,99.90
2023-04-28T01:09:01.414Z,99.90
2023-04-28T01:11:30.751Z,99.90
2023-04-28T01:14:01.419Z,99.90
2023-04-28T01:16:33.508Z,99.90
2023-04-28T01:19:03.369Z,99.90
2023-04-28T01:21:36.338Z,99.90
2023-04-28T01:24:07.858Z,99.90
2023-04-28T01:26:37.255Z,99.90
2023-04-28T01:29:06.720Z,99.90
2023-04-28T01:31:36.231Z,99.90
2023-04-28T01:34:05.913Z,99.60
2023-04-28T01:36:37.563Z,99.00
2023-04-28T01:39:08.156Z,98.80
2023-04-28T01:41:37.649Z,98.70
2023-04-28T01:44:08.926Z,98.60
2023-04-28T01:46:38.376Z,98.20
2023-04-28T01:49:07.931Z,97.90
2023-04-28T01:51:37.253Z,97.60
2023-04-28T01:54:06.944Z,97.40
2023-04-28T01:56:39.226Z,97.30
2023-04-28T01:59:08.627Z,96.20
2023-04-28T02:01:38.002Z,96.20
2023-04-28T02:04:07.783Z,95.80
2023-04-28T02:06:38.182Z,95.70
2023-04-28T02:09:07.516Z,95.60
2023-04-28T02:11:36.813Z,95.50
2023-04-28T02:14:06.171Z,95.20
2023-04-28T02:16:35.721Z,94.60
2023-04-28T02:19:05.140Z,94.40
2023-04-28T02:21:34.513Z,94.10
2023-04-28T02:24:04.183Z,93.90
2023-04-28T02:26:35.330Z,93.80
2023-04-28T02:29:07.446Z,93.60
2023-04-28T02:31:39.953Z,93.50
2023-04-28T02:34:09.453Z,93.50
2023-04-28T02:36:38.869Z,93.10
2023-04-28T02:39:08.549Z,92.10
2023-04-28T02:41:40.294Z,91.90
2023-04-28T02:44:09.646Z,91.60
2023-04-28T02:46:39.019Z,92.00
2023-04-28T02:49:08.713Z,91.30
2023-04-28T02:51:38.057Z,91.10
2023-04-28T02:54:07.474Z,91.40
2023-04-28T02:56:38.262Z,91.00
2023-04-28T02:59:10.248Z,90.60
2023-04-28T03:01:39.684Z,90.60
2023-04-28T03:04:09.548Z,90.50
2023-04-28T03:06:39.094Z,90.50
2023-04-28T03:09:09.002Z,90.10
2023-04-28T03:11:39.297Z,89.80
2023-04-28T03:14:09.228Z,89.10
2023-04-28T03:16:38.801Z,89.00
2023-04-28T03:19:08.153Z,88.70
2023-04-28T03:21:37.502Z,89.40
2023-04-28T03:24:07.323Z,87.40
2023-04-28T03:26:37.588Z,88.20
2023-04-28T03:29:07.153Z,88.00
2023-04-28T03:31:36.456Z,87.00
2023-04-28T03:34:05.827Z,86.10
2023-04-28T03:36:35.191Z,84.70
2023-04-28T03:39:04.425Z,86.00
2023-04-28T03:41:33.749Z,86.40
2023-04-28T03:44:02.966Z,87.30
2023-04-28T03:46:32.314Z,86.60
2023-04-28T03:49:03.291Z,85.10
2023-04-28T03:51:33.950Z,83.80
2023-04-28T03:54:03.457Z,83.50
2023-04-28T03:56:32.685Z,83.60
2023-04-28T03:59:02.081Z,83.10
2023-04-28T04:01:31.562Z,82.80
2023-04-28T04:04:00.993Z,82.00
2023-04-28T04:06:30.750Z,81.50
2023-04-28T04:09:00.452Z,80.50
2023-04-28T04:11:29.753Z,79.60
2023-04-28T04:13:58.953Z,79.80
2023-04-28T04:16:28.539Z,79.90
2023-04-28T04:18:57.917Z,79.50
2023-04-28T04:21:27.467Z,79.10
2023-04-28T04:23:56.940Z,78.50
2023-04-28T04:26:26.320Z,76.50
2023-04-28T04:28:55.494Z,77.50
2023-04-28T04:31:24.762Z,76.70
2023-04-28T04:33:54.414Z,75.70
2023-04-28T04:36:23.966Z,76.00
2023-04-28T04:38:54.527Z,74.70
2023-04-28T04:41:25.128Z,75.10
2023-04-28T04:43:54.391Z,74.00
2023-04-28T04:46:24.937Z,74.30
2023-04-28T04:48:54.194Z,74.50
2023-04-28T04:51:23.613Z,74.30
2023-04-28T04:53:52.971Z,73.60
2023-04-28T04:56:22.298Z,73.60
2023-04-28T04:58:53.796Z,73.20
2023-04-28T05:01:23.164Z,72.70
2023-04-28T05:03:52.654Z,72.30
2023-04-28T05:06:22.425Z,72.50
2023-04-28T05:08:51.742Z,72.70
2023-04-28T05:11:21.393Z,74.30
2023-04-28T05:13:50.634Z,76.80
2023-04-28T05:16:19.877Z,77.00
2023-04-28T05:18:49.428Z,76.60
2023-04-28T05:21:18.688Z,76.80
2023-04-28T05:23:48.409Z,76.30
2023-04-28T05:26:17.860Z,75.80
2023-04-28T05:28:47.061Z,76.30
2023-04-28T05:31:17.368Z,76.00
2023-04-28T05:33:46.561Z,76.70
2023-04-28T05:36:18.009Z,75.90
2023-04-28T05:38:47.389Z,76.80
2023-04-28T05:41:16.887Z,77.00
2023-04-28T05:43:47.354Z,77.10
2023-04-28T05:46:29.261Z,76.60
2023-04-28T05:49:00.325Z,76.80
2023-04-28T05:51:29.614Z,77.30
2023-04-28T05:53:59.193Z,77.30
2023-04-28T05:56:28.497Z,77.50
2023-04-28T05:58:59.575Z,78.20
2023-04-28T06:01:28.833Z,78.40
2023-04-28T06:03:59.839Z,77.40
2023-04-28T06:06:30.479Z,77.30
2023-04-28T06:08:59.715Z,77.30
2023-04-28T06:11:28.951Z,77.70
2023-04-28T06:13:58.406Z,77.00
2023-04-28T06:16:28.224Z,76.10
2023-04-28T06:18:57.593Z,75.90
2023-04-28T06:21:28.408Z,75.60
2023-04-28T06:24:01.822Z,74.50
2023-04-28T06:26:31.998Z,74.70
2023-04-28T06:29:01.564Z,74.70
2023-04-28T06:31:31.057Z,74.30
2023-04-28T06:34:00.264Z,74.50
2023-04-28T06:36:29.494Z,73.50
2023-04-28T06:38:59.889Z,72.70
2023-04-28T06:41:30.241Z,73.90
2023-04-28T06:43:59.470Z,73.50
2023-04-28T06:46:28.826Z,72.60
2023-04-28T06:48:58.404Z,72.00
2023-04-28T06:51:28.188Z,72.00
2023-04-28T06:53:57.431Z,71.90
2023-04-28T06:56:27.043Z,71.00
2023-04-28T06:59:00.847Z,70.80
2023-04-28T07:01:30.246Z,71.30
2023-04-28T07:03:59.540Z,71.50
2023-04-28T07:06:29.648Z,70.50
2023-04-28T07:08:58.862Z,70.60
2023-04-28T07:11:28.178Z,70.30
2023-04-28T07:13:57.327Z,71.60
2023-04-28T07:16:27.741Z,70.40
2023-04-28T07:18:57.197Z,71.60
2023-04-28T07:21:26.850Z,70.80
2023-04-28T07:23:59.340Z,71.30
2023-04-28T07:26:28.624Z,72.00
2023-04-28T07:28:58.094Z,72.10
2023-04-28T07:31:27.803Z,72.70
2023-04-28T07:33:57.864Z,72.30
2023-04-28T07:36:27.929Z,71.50
2023-04-28T07:38:57.297Z,70.70
2023-04-28T07:41:29.040Z,70.80
2023-04-28T07:43:58.413Z,70.10
2023-04-28T07:46:28.343Z,69.30
2023-04-28T07:48:57.965Z,69.70
2023-04-28T07:51:27.969Z,69.60
2023-04-28T07:53:57.380Z,70.00
2023-04-28T07:56:27.616Z,69.60
2023-04-28T07:58:57.266Z,69.40
2023-04-28T08:01:26.601Z,69.30
2023-04-28T08:03:56.129Z,69.40
2023-04-28T08:06:26.716Z,68.90
2023-04-28T08:08:57.336Z,67.90
2023-04-28T08:11:26.748Z,68.10
2023-04-28T08:13:56.293Z,67.80
2023-04-28T08:16:25.659Z,68.00
2023-04-28T08:18:55.224Z,68.10
2023-04-28T08:21:24.601Z,67.80
2023-04-28T08:23:53.850Z,67.80
2023-04-28T08:26:23.380Z,67.80
2023-04-28T08:28:53.148Z,68.20
2023-04-28T08:31:22.537Z,68.40
2023-04-28T08:33:53.158Z,67.60
2023-04-28T08:36:24.618Z,68.20
2023-04-28T08:38:54.031Z,68.40
2023-04-28T08:41:23.911Z,68.40
2023-04-28T08:43:53.118Z,67.70
2023-04-28T08:46:25.292Z,68.00
2023-04-28T08:49:02.377Z,67.30
2023-04-28T08:51:42.017Z,67.10
2023-04-28T08:54:25.498Z,66.60
2023-04-28T08:56:58.414Z,67.10
2023-04-28T08:59:28.599Z,67.10
2023-04-28T09:01:58.443Z,66.70
2023-04-28T09:04:28.330Z,66.70
2023-04-28T09:06:58.549Z,66.80
2023-04-28T09:09:34.725Z,67.20
2023-04-28T09:12:05.905Z,66.40
2023-04-28T09:14:37.626Z,66.60
2023-04-28T09:17:15.649Z,66.70
2023-04-28T09:19:45.143Z,66.40
2023-04-28T09:22:26.278Z,66.30
2023-04-28T09:24:57.163Z,66.10
2023-04-28T09:27:30.848Z,67.10
2023-04-28T09:30:00.198Z,66.90
2023-04-28T09:32:30.513Z,66.70
2023-04-28T09:35:00.682Z,67.10
2023-04-28T09:37:33.434Z,67.40
2023-04-28T09:40:12.050Z,67.60
2023-04-28T09:42:44.018Z,67.60
2023-04-28T09:45:16.426Z,67.60
2023-04-28T09:47:49.249Z,68.10
2023-04-28T09:50:19.446Z,68.30
2023-04-28T09:53:00.217Z,68.60
2023-04-28T09:55:33.614Z,68.80
2023-04-28T09:58:08.613Z,68.50
2023-04-28T10:00:41.803Z,69.10
2023-04-28T10:03:17.661Z,69.30
2023-04-28T10:05:47.694Z,69.20
2023-04-28T10:08:17.758Z,69.50
2023-04-28T10:10:50.205Z,69.70
2023-04-28T10:13:21.092Z,69.70
2023-04-28T10:15:57.075Z,70.10
2023-04-28T10:18:27.907Z,70.50
2023-04-28T10:21:06.319Z,70.80
2023-04-28T10:24:11.050Z,70.90
2023-04-28T10:27:11.780Z,71.50
2023-04-28T10:29:41.198Z,72.10
2023-04-28T10:32:27.203Z,71.80
2023-04-28T10:35:34.366Z,72.20
2023-04-28T10:38:24.344Z,72.50
2023-04-28T10:40:55.461Z,72.50
2023-04-28T10:43:41.178Z,72.50
2023-04-28T10:46:12.588Z,72.40
2023-04-28T10:48:50.872Z,72.40
2023-04-28T10:51:20.161Z,72.70
2023-04-28T10:53:50.515Z,72.90
2023-04-28T10:56:31.303Z,73.00
2023-04-28T10:59:01.813Z,72.90
2023-04-28T11:01:35.636Z,73.20
2023-04-28T11:04:14.368Z,73.30
2023-04-28T11:06:48.918Z,73.50
2023-04-28T11:09:21.285Z,73.60
2023-04-28T11:12:03.206Z,73.70
2023-04-28T11:14:34.014Z,74.20
2023-04-28T11:17:14.314Z,75.20
2023-04-28T11:19:46.764Z,74.90
2023-04-28T11:22:21.944Z,75.40
2023-04-28T11:25:05.204Z,75.70
2023-04-28T11:27:35.901Z,76.00
2023-04-28T11:30:07.156Z,76.40
2023-04-28T11:32:37.769Z,76.60
2023-04-28T11:35:10.711Z,76.70
2023-04-28T11:37:40.111Z,77.10
2023-04-28T11:40:16.809Z,77.20
2023-04-28T11:42:52.474Z,77.40
2023-04-28T11:45:22.041Z,77.40
2023-04-28T11:47:51.421Z,77.50
2023-04-28T11:50:39.219Z,77.60
2023-04-28T11:53:08.658Z,77.30
2023-04-28T11:55:38.848Z,77.10
2023-04-28T11:58:28.908Z,77.80
2023-04-28T12:01:12.792Z,77.60
2023-04-28T12:03:49.599Z,78.00
2023-04-28T12:06:21.922Z,78.20
2023-04-28T12:08:55.799Z,78.50
2023-04-28T12:11:25.857Z,78.40
2023-04-28T12:14:11.550Z,79.40
2023-04-28T12:16:46.067Z,78.90
2023-04-28T12:19:16.664Z,79.00
2023-04-28T12:21:46.203Z,78.80
2023-04-28T12:24:22.669Z,79.70
2023-04-28T12:26:52.053Z,79.10
2023-04-28T12:29:44.245Z,79.30
2023-04-28T12:32:14.831Z,79.40
2023-04-28T12:34:47.194Z,79.50
2023-04-28T12:37:16.611Z,79.80
2023-04-28T12:39:46.568Z,80.00
2023-04-28T12:42:16.068Z,80.20
2023-04-28T12:44:46.486Z,80.20
2023-04-28T12:47:16.453Z,80.50
2023-04-28T12:49:46.343Z,80.50
2023-04-28T12:52:15.731Z,80.70
2023-04-28T12:54:48.216Z,80.50
2023-04-28T12:57:19.436Z,80.70
2023-04-28T12:59:49.525Z,80.40
2023-04-28T13:02:18.817Z,80.40
2023-04-28T13:04:48.890Z,80.50
2023-04-28T13:07:18.941Z,80.50
2023-04-28T13:09:48.501Z,80.50
2023-04-28T13:12:17.911Z,80.50
2023-04-28T13:14:47.399Z,80.50
2023-04-28T13:17:17.115Z,80.70
2023-04-28T13:19:46.660Z,80.80
2023-04-28T13:22:16.893Z,80.80
2023-04-28T13:24:46.958Z,81.10
2023-04-28T13:27:16.733Z,81.40
2023-04-28T13:29:46.914Z,81.30
2023-04-28T13:32:19.511Z,81.10
2023-04-28T13:34:49.245Z,81.40
2023-04-28T13:37:18.642Z,81.20
2023-04-28T13:39:48.232Z,81.40
2023-04-28T13:42:17.508Z,81.50
2023-04-28T13:44:50.652Z,81.80
2023-04-28T13:47:20.338Z,81.80
2023-04-28T13:49:49.791Z,82.10
2023-04-28T13:52:19.938Z,82.30
2023-04-28T13:54:49.588Z,82.30
2023-04-28T13:57:19.596Z,82.30
2023-04-28T13:59:48.955Z,82.40
2023-04-28T14:02:18.415Z,82.70
2023-04-28T14:04:50.607Z,82.70
2023-04-28T14:07:20.627Z,82.50
2023-04-28T14:09:51.641Z,82.40
2023-04-28T14:12:21.384Z,82.30
2023-04-28T14:14:50.725Z,82.70
2023-04-28T14:17:20.125Z,81.60
2023-04-28T14:19:49.784Z,81.50
2023-04-28T14:22:19.238Z,81.70
2023-04-28T14:24:48.770Z,81.30
2023-04-28T14:27:18.636Z,81.30
2023-04-28T14:29:50.797Z,81.20
2023-04-28T14:32:22.375Z,81.60
2023-04-28T14:34:52.441Z,81.50
2023-04-28T14:37:21.890Z,81.10
2023-04-28T14:39:51.547Z,81.10
2023-04-28T14:42:21.380Z,80.90
2023-04-28T14:44:51.776Z,80.80
2023-04-28T14:47:22.831Z,81.10
2023-04-28T14:49:55.560Z,81.30
2023-04-28T14:52:28.212Z,81.10
2023-04-28T14:54:59.463Z,81.40
2023-04-28T14:57:29.458Z,81.60
2023-04-28T14:59:59.533Z,81.50
2023-04-28T15:02:30.569Z,81.70
2023-04-28T15:05:00.946Z,82.20
2023-04-28T15:07:32.248Z,82.20
2023-04-28T15:10:02.429Z,82.30
2023-04-28T15:12:33.075Z,82.70
2023-04-28T15:15:02.959Z,82.80
2023-04-28T15:17:32.476Z,83.10
2023-04-28T15:20:02.066Z,83.30
2023-04-28T15:22:31.532Z,83.60
2023-04-28T15:25:01.302Z,83.80
2023-04-28T15:27:30.692Z,84.00
2023-04-28T15:30:00.207Z,84.10
2023-04-28T15:32:30.558Z,83.60
2023-04-28T15:35:00.586Z,84.80
2023-04-28T15:37:45.651Z,84.10
2023-04-28T15:40:17.897Z,84.30
2023-04-28T15:42:53.253Z,84.70
2023-04-28T15:45:24.237Z,84.70
2023-04-28T15:47:55.899Z,84.80
2023-04-28T15:50:25.568Z,85.10
2023-04-28T15:52:55.456Z,85.10
2023-04-28T15:55:26.261Z,85.60
2023-04-28T15:57:55.667Z,85.90
2023-04-28T16:00:25.646Z,85.80
2023-04-28T16:02:55.182Z,86.00
2023-04-28T16:05:25.132Z,86.10
2023-04-28T16:07:56.205Z,86.20
2023-04-28T16:10:25.746Z,86.10
2023-04-28T16:12:55.146Z,86.10
2023-04-28T16:15:24.754Z,86.60
2023-04-28T16:17:56.617Z,87.00
2023-04-28T16:20:26.128Z,87.10
2023-04-28T16:22:55.483Z,87.30
2023-04-28T16:25:25.042Z,87.20
2023-04-28T16:27:54.405Z,87.40
2023-04-28T16:30:24.201Z,87.50
2023-04-28T16:32:54.323Z,87.60
2023-04-28T16:35:23.864Z,87.50
2023-04-28T16:37:53.410Z,87.50
2023-04-28T16:40:23.295Z,87.50
2023-04-28T16:42:52.671Z,87.50
2023-04-28T16:45:22.015Z,87.70
2023-04-28T16:47:51.397Z,87.70
2023-04-28T16:50:20.865Z,87.80
2023-04-28T16:52:50.702Z,88.20
2023-04-28T16:55:20.116Z,88.30
2023-04-28T16:57:49.690Z,88.10
2023-04-28T17:00:19.858Z,88.60
2023-04-28T17:02:49.372Z,88.10
2023-04-28T17:05:19.071Z,88.10
2023-04-28T17:07:48.813Z,88.50
2023-04-28T17:10:18.083Z,88.50
2023-04-28T17:12:47.437Z,88.50
2023-04-28T17:15:18.480Z,88.70
2023-04-28T17:17:52.534Z,88.80
2023-04-28T17:20:22.480Z,88.80
2023-04-28T17:22:52.037Z,88.90
2023-04-28T17:25:23.684Z,89.10
2023-04-28T17:27:53.129Z,89.20
2023-04-28T17:30:22.457Z,89.50
2023-04-28T17:32:51.927Z,89.60
2023-04-28T17:35:21.356Z,89.50
2023-04-28T17:37:50.536Z,89.80
2023-04-28T17:40:19.857Z,90.00
2023-04-28T17:42:49.116Z,90.00
2023-04-28T17:45:18.563Z,90.00
2023-04-28T17:47:48.005Z,90.10
2023-04-28T17:50:17.292Z,90.10
2023-04-28T17:52:46.524Z,90.20
2023-04-28T17:55:16.803Z,90.20
2023-04-28T17:57:46.280Z,90.30
2023-04-28T18:00:16.012Z,90.30
2023-04-28T18:02:45.339Z,90.30
2023-04-28T18:05:15.050Z,90.40
2023-04-28T18:07:45.489Z,90.60
2023-04-28T18:10:16.112Z,90.60
2023-04-28T18:12:46.286Z,90.50
2023-04-28T18:15:15.884Z,90.70
2023-04-28T18:17:48.192Z,90.70
2023-04-28T18:20:17.533Z,90.80
2023-04-28T18:22:47.387Z,90.90
2023-04-28T18:25:18.027Z,91.00
2023-04-28T18:27:48.009Z,91.10
2023-04-28T18:30:17.213Z,91.10
2023-04-28T18:32:49.945Z,91.20
2023-04-28T18:35:20.020Z,91.20
2023-04-28T18:37:49.465Z,91.20
2023-04-28T18:40:18.918Z,91.20
2023-04-28T18:42:48.214Z,91.30
2023-04-28T18:45:17.461Z,91.30
2023-04-28T18:47:46.773Z,91.20
2023-04-28T18:50:16.322Z,91.30
2023-04-28T18:52:45.564Z,91.20
2023-04-28T18:55:15.394Z,91.40
2023-04-28T18:57:44.681Z,91.40
2023-04-28T19:00:14.120Z,91.50
2023-04-28T19:02:44.198Z,91.50
2023-04-28T19:05:14.361Z,91.50
2023-04-28T19:07:43.828Z,91.50
2023-04-28T19:10:14.296Z,91.60
2023-04-28T19:12:43.544Z,91.60
2023-04-28T19:15:12.906Z,91.50
2023-04-28T19:17:42.206Z,91.60
2023-04-28T19:20:11.776Z,91.70
2023-04-28T19:22:42.396Z,91.70
2023-04-28T19:25:12.977Z,91.70
2023-04-28T19:27:46.094Z,91.80
2023-04-28T19:30:16.681Z,91.80
2023-04-28T19:32:45.882Z,91.70
2023-04-28T19:35:15.562Z,91.80
2023-04-28T19:37:45.535Z,91.80
2023-04-28T19:40:15.098Z,91.80
2023-04-28T19:42:44.335Z,91.80
2023-04-28T19:45:13.767Z,91.90
2023-04-28T19:47:43.239Z,91.80
2023-04-28T19:50:12.716Z,91.70
2023-04-28T19:52:42.795Z,91.80
2023-04-28T19:55:12.482Z,91.80
2023-04-28T19:57:41.965Z,91.90
2023-04-28T20:00:12.286Z,91.90
2023-04-28T20:02:41.634Z,92.00
2023-04-28T20:05:11.455Z,91.80
2023-04-28T20:07:42.488Z,92.10
2023-04-28T20:10:12.752Z,92.40
2023-04-28T20:12:43.275Z,92.60
2023-04-28T20:15:13.440Z,92.80
2023-04-28T20:17:42.797Z,93.00
2023-04-28T20:20:12.938Z,93.20
2023-04-28T20:22:42.394Z,93.40
2023-04-28T20:25:12.174Z,93.50
2023-04-28T20:27:41.818Z,93.70
2023-04-28T20:30:12.060Z,94.00
2023-04-28T20:32:41.806Z,94.00
2023-04-28T20:35:11.505Z,94.00
2023-04-28T20:37:40.949Z,94.10
2023-04-28T20:40:11.575Z,94.20
2023-04-28T20:42:41.787Z,94.30
2023-04-28T20:45:12.414Z,94.40
2023-04-28T20:47:41.891Z,94.70
2023-04-28T20:50:14.772Z,94.70
2023-04-28T20:52:44.171Z,94.90
2023-04-28T20:55:13.768Z,95.00
2023-04-28T20:57:44.776Z,95.00
2023-04-28T21:00:14.741Z,95.20
2023-04-28T21:02:44.314Z,95.20
2023-04-28T21:05:14.119Z,95.20
2023-04-28T21:07:43.720Z,95.40
2023-04-28T21:10:13.244Z,95.40
2023-04-28T21:12:42.617Z,95.60
2023-04-28T21:15:12.478Z,95.60
2023-04-28T21:17:42.144Z,95.60
2023-04-28T21:20:12.297Z,95.50
2023-04-28T21:22:42.291Z,95.50
2023-04-28T21:25:11.779Z,95.40
2023-04-28T21:27:41.253Z,95.40
2023-04-28T21:30:12.804Z,95.50
2023-04-28T21:32:43.133Z,95.50
2023-04-28T21:35:12.517Z,95.50
2023-04-28T21:37:41.944Z,95.50
2023-04-28T21:40:12.388Z,95.60
2023-04-28T21:42:41.744Z,95.60
2023-04-28T21:45:11.937Z,95.50
2023-04-28T21:47:43.449Z,95.60
2023-04-28T21:50:13.177Z,95.60
2023-04-28T21:52:42.480Z,95.60
2023-04-28T21:55:11.984Z,95.70
2023-04-28T21:57:41.426Z,95.80
2023-04-28T22:00:13.534Z,95.90
2023-04-28T22:02:44.018Z,95.80
2023-04-28T22:05:14.160Z,95.80
2023-04-28T22:07:43.654Z,95.90
2023-04-28T22:10:14.388Z,95.80
2023-04-28T22:12:43.579Z,95.90
2023-04-28T22:15:13.344Z,96.00
2023-04-28T22:17:42.650Z,96.00
2023-04-28T22:20:12.355Z,96.20
2023-04-28T22:22:42.640Z,96.20
2023-04-28T22:25:11.984Z,96.30
2023-04-28T22:27:41.521Z,96.40
2023-04-28T22:30:11.889Z,96.40
2023-04-28T22:32:45.308Z,96.40
2023-04-28T22:35:14.867Z,96.50
2023-04-28T22:37:44.507Z,96.50
2023-04-28T22:40:14.015Z,96.60
2023-04-28T22:42:44.565Z,96.70
2023-04-28T22:45:14.272Z,96.70
2023-04-28T22:47:43.836Z,96.80
2023-04-28T22:50:13.996Z,96.60
2023-04-28T22:52:43.544Z,97.00
2023-04-28T22:55:14.534Z,96.70
2023-04-28T22:57:43.935Z,96.80
2023-04-28T23:00:14.064Z,97.00
2023-04-28T23:02:44.013Z,97.10
2023-04-28T23:05:13.661Z,97.20
2023-04-28T23:07:43.307Z,97.30
2023-04-28T23:10:14.431Z,97.40
2023-04-28T23:12:44.464Z,97.50
2023-04-28T23:15:13.945Z,97.50
2023-04-28T23:17:44.631Z,97.60
2023-04-28T23:20:14.469Z,97.70
2023-04-28T23:22:43.650Z,97.70
2023-04-28T23:25:13.364Z,97.80
2023-04-28T23:27:42.563Z,97.80
2023-04-28T23:30:12.773Z,98.00
2023-04-28T23:32:43.403Z,98.00
2023-04-28T23:35:12.721Z,98.00
2023-04-28T23:37:42.233Z,98.10
2023-04-28T23:40:12.743Z,98.10
2023-04-28T23:42:42.184Z,98.10
2023-04-28T23:45:12.106Z,98.20
2023-04-28T23:47:41.745Z,98.20
2023-04-28T23:50:11.857Z,98.20
2023-04-28T23:52:44.946Z,98.30
2023-04-28T23:55:14.383Z,98.10
2023-04-28T23:57:43.831Z,98.30
